Capitán FAP Renán Elías Olivera International Airport
SPSO : now visible

Airfield :











YOU CAN JOIN US ON...

 
LOGIN :

Register | Disclaimer

   EN    FR    IT 

 









Legend :    VFR   Marginal VFR   IFR   Intensive IFR   Very Intensive IFR
Visi :
Ceiling :
>= 8 km
>= 3000ft
5 to 8 km
1000 to 3000 ft
1500m to 5 km
500 to 1000 ft
800 to 1500m
200 to 500 ft
< 800m
< 200 ft
Symbols :   Thunderstorms  Fog  Heavy snow  Heavy precipitations  Wind > 20 kt






- Airport Elevation : 39 ft
- IATA code : PIO


SPSO - Capitán FAP Renán Elías Olivera International

CURRENT METAR :
  • 050900Z 01003KT 7000 SCT008 21/19 Q1011 RMK PP000

EXPIRED METARs :
  • 050800Z 02004KT 7000 OVC008 21/19 Q1011 RMK PP000
  • 050700Z 03003KT 7000 OVC008 21/19 Q1011 RMK PP000

TAF SPSO
Valid from the 05 at 06:00 until the 06 at 06:00 UTC


050500Z 0506/0606 34006KT 7000 SCT008 TX27/0519Z TN20/0511Z
TEMPO 0511/0513 4500 BR BKN006
BECMG 0513/0515 30010KT
BECMG 0518/0521 24014KT CAVOK
FM060400 21008KT 9999 SCT010



MET'MAP, your aeronautical weather chart ! - Copyright ORBIFLY December 2007 - Disclaimer

ORBIFLY MET'MAP TEAM :

Programming & Development : Alexandra Zaïnal
Concept & original design : Baudouin d'Aumeries
Assistance for programming : Marc-Olivier Méhu
Technical & hardware support : Manuel Goepfert

Contact : metmap@orbifly.com




SOURCES & CREDITS :

   NOAA       Earth
Advisory